sensor_id;sensor_type;location;lat;lon;timestamp;P1;durP1;ratioP1;P2;durP2;ratioP2
47239;SDS011;32978;53.586;10.052;2023-03-11T00:00:32;19.65;;;13.43;;
47239;SDS011;32978;53.586;10.052;2023-03-11T00:05:32;21.58;;;12.90;;
47239;SDS011;32978;53.586;10.052;2023-03-11T00:10:31;19.00;;;12.23;;
47239;SDS011;32978;53.586;10.052;2023-03-11T00:15:30;18.75;;;12.75;;
47239;SDS011;32978;53.586;10.052;2023-03-11T00:20:28;18.95;;;12.90;;
47239;SDS011;32978;53.586;10.052;2023-03-11T00:25:30;22.95;;;15.15;;
47239;SDS011;32978;53.586;10.052;2023-03-11T00:30:28;21.38;;;15.27;;
47239;SDS011;32978;53.586;10.052;2023-03-11T00:35:26;19.80;;;14.57;;
47239;SDS011;32978;53.586;10.052;2023-03-11T00:40:25;25.80;;;15.48;;
47239;SDS011;32978;53.586;10.052;2023-03-11T00:45:23;22.50;;;14.13;;
47239;SDS011;32978;53.586;10.052;2023-03-11T00:50:21;22.63;;;15.13;;
47239;SDS011;32978;53.586;10.052;2023-03-11T00:55:23;24.30;;;17.02;;
47239;SDS011;32978;53.586;10.052;2023-03-11T01:00:27;22.08;;;16.15;;
47239;SDS011;32978;53.586;10.052;2023-03-11T01:05:27;24.23;;;15.55;;
47239;SDS011;32978;53.586;10.052;2023-03-11T01:10:26;26.67;;;16.85;;
47239;SDS011;32978;53.586;10.052;2023-03-11T01:15:26;27.13;;;15.90;;
47239;SDS011;32978;53.586;10.052;2023-03-11T01:20:33;21.83;;;15.07;;
47239;SDS011;32978;53.586;10.052;2023-03-11T01:25:30;24.95;;;15.63;;
47239;SDS011;32978;53.586;10.052;2023-03-11T01:30:27;24.85;;;17.33;;
47239;SDS011;32978;53.586;10.052;2023-03-11T01:35:26;24.00;;;16.80;;
47239;SDS011;32978;53.586;10.052;2023-03-11T01:50:24;23.92;;;15.30;;
47239;SDS011;32978;53.586;10.052;2023-03-11T01:55:26;22.38;;;15.63;;
47239;SDS011;32978;53.586;10.052;2023-03-11T02:00:24;23.17;;;15.25;;
47239;SDS011;32978;53.586;10.052;2023-03-11T02:05:20;15.85;;;10.40;;
47239;SDS011;32978;53.586;10.052;2023-03-11T02:10:18;20.30;;;13.55;;
47239;SDS011;32978;53.586;10.052;2023-03-11T02:15:15;19.25;;;13.52;;
47239;SDS011;32978;53.586;10.052;2023-03-11T02:25:34;23.25;;;14.45;;
47239;SDS011;32978;53.586;10.052;2023-03-11T02:30:38;23.48;;;15.93;;
47239;SDS011;32978;53.586;10.052;2023-03-11T02:35:37;23.17;;;13.77;;
47239;SDS011;32978;53.586;10.052;2023-03-11T02:45:50;21.33;;;14.93;;
47239;SDS011;32978;53.586;10.052;2023-03-11T02:50:47;20.50;;;13.38;;
47239;SDS011;32978;53.586;10.052;2023-03-11T02:55:43;24.10;;;12.75;;
47239;SDS011;32978;53.586;10.052;2023-03-11T03:00:40;22.15;;;13.55;;
47239;SDS011;32978;53.586;10.052;2023-03-11T03:05:36;22.55;;;14.95;;
47239;SDS011;32978;53.586;10.052;2023-03-11T03:10:33;23.30;;;15.43;;
47239;SDS011;32978;53.586;10.052;2023-03-11T03:15:29;20.98;;;14.15;;
47239;SDS011;32978;53.586;10.052;2023-03-11T03:20:26;19.23;;;13.68;;
47239;SDS011;32978;53.586;10.052;2023-03-11T03:25:22;16.95;;;12.77;;
47239;SDS011;32978;53.586;10.052;2023-03-11T03:30:19;16.23;;;12.32;;
47239;SDS011;32978;53.586;10.052;2023-03-11T03:35:15;24.10;;;13.00;;
47239;SDS011;32978;53.586;10.052;2023-03-11T03:40:12;17.40;;;12.73;;
47239;SDS011;32978;53.586;10.052;2023-03-11T03:45:09;16.45;;;12.30;;
47239;SDS011;32978;53.586;10.052;2023-03-11T03:50:06;17.67;;;12.02;;
47239;SDS011;32978;53.586;10.052;2023-03-11T03:55:05;18.58;;;13.52;;
47239;SDS011;32978;53.586;10.052;2023-03-11T04:00:02;16.40;;;11.70;;
47239;SDS011;32978;53.586;10.052;2023-03-11T04:04:59;19.00;;;13.45;;
47239;SDS011;32978;53.586;10.052;2023-03-11T04:09:56;18.38;;;12.05;;
47239;SDS011;32978;53.586;10.052;2023-03-11T04:14:52;17.48;;;11.68;;
47239;SDS011;32978;53.586;10.052;2023-03-11T04:19:49;16.33;;;11.63;;
47239;SDS011;32978;53.586;10.052;2023-03-11T04:24:45;16.73;;;12.68;;
47239;SDS011;32978;53.586;10.052;2023-03-11T04:29:42;15.77;;;11.85;;
47239;SDS011;32978;53.586;10.052;2023-03-11T04:34:38;17.13;;;11.57;;
47239;SDS011;32978;53.586;10.052;2023-03-11T04:39:35;18.33;;;12.88;;
47239;SDS011;32978;53.586;10.052;2023-03-11T04:44:33;18.75;;;12.18;;
47239;SDS011;32978;53.586;10.052;2023-03-11T04:49:30;19.42;;;13.15;;
47239;SDS011;32978;53.586;10.052;2023-03-11T04:54:27;19.13;;;13.20;;
47239;SDS011;32978;53.586;10.052;2023-03-11T04:59:23;17.90;;;13.70;;
47239;SDS011;32978;53.586;10.052;2023-03-11T05:04:20;18.77;;;12.73;;
47239;SDS011;32978;53.586;10.052;2023-03-11T05:09:16;19.00;;;12.57;;
47239;SDS011;32978;53.586;10.052;2023-03-11T05:14:13;18.65;;;13.15;;
47239;SDS011;32978;53.586;10.052;2023-03-11T05:19:09;19.90;;;12.40;;
47239;SDS011;32978;53.586;10.052;2023-03-11T05:24:24;19.77;;;13.73;;
47239;SDS011;32978;53.586;10.052;2023-03-11T05:29:21;20.17;;;13.15;;
47239;SDS011;32978;53.586;10.052;2023-03-11T05:34:18;21.02;;;12.82;;
47239;SDS011;32978;53.586;10.052;2023-03-11T05:39:15;17.73;;;12.25;;
47239;SDS011;32978;53.586;10.052;2023-03-11T05:44:13;18.98;;;12.32;;
47239;SDS011;32978;53.586;10.052;2023-03-11T05:49:09;19.15;;;13.20;;
47239;SDS011;32978;53.586;10.052;2023-03-11T05:54:06;20.63;;;13.55;;
47239;SDS011;32978;53.586;10.052;2023-03-11T05:59:10;21.48;;;12.98;;
47239;SDS011;32978;53.586;10.052;2023-03-11T06:04:11;18.45;;;13.50;;
47239;SDS011;32978;53.586;10.052;2023-03-11T06:09:11;20.25;;;13.73;;
47239;SDS011;32978;53.586;10.052;2023-03-11T06:14:12;18.38;;;13.10;;
47239;SDS011;32978;53.586;10.052;2023-03-11T06:19:09;16.40;;;12.55;;
47239;SDS011;32978;53.586;10.052;2023-03-11T06:24:06;15.95;;;10.60;;
47239;SDS011;32978;53.586;10.052;2023-03-11T06:29:03;16.77;;;12.05;;
47239;SDS011;32978;53.586;10.052;2023-03-11T06:33:59;17.00;;;12.02;;
47239;SDS011;32978;53.586;10.052;2023-03-11T06:38:56;14.73;;;12.15;;
47239;SDS011;32978;53.586;10.052;2023-03-11T06:43:52;18.95;;;12.60;;
47239;SDS011;32978;53.586;10.052;2023-03-11T06:48:48;16.15;;;13.45;;
47239;SDS011;32978;53.586;10.052;2023-03-11T06:53:48;14.27;;;11.10;;
47239;SDS011;32978;53.586;10.052;2023-03-11T06:58:47;16.77;;;12.40;;
47239;SDS011;32978;53.586;10.052;2023-03-11T07:03:44;20.75;;;12.82;;
47239;SDS011;32978;53.586;10.052;2023-03-11T07:08:41;15.95;;;11.95;;
47239;SDS011;32978;53.586;10.052;2023-03-11T07:13:38;17.15;;;12.05;;
47239;SDS011;32978;53.586;10.052;2023-03-11T07:18:35;18.38;;;12.13;;
47239;SDS011;32978;53.586;10.052;2023-03-11T07:23:32;16.33;;;11.30;;
47239;SDS011;32978;53.586;10.052;2023-03-11T07:28:29;14.35;;;10.60;;
47239;SDS011;32978;53.586;10.052;2023-03-11T07:33:25;14.30;;;10.95;;
47239;SDS011;32978;53.586;10.052;2023-03-11T07:38:22;14.85;;;11.85;;
47239;SDS011;32978;53.586;10.052;2023-03-11T07:43:18;16.77;;;11.40;;
47239;SDS011;32978;53.586;10.052;2023-03-11T07:48:16;13.98;;;11.20;;
47239;SDS011;32978;53.586;10.052;2023-03-11T07:53:13;15.57;;;11.07;;
47239;SDS011;32978;53.586;10.052;2023-03-11T07:58:09;13.45;;;11.00;;
47239;SDS011;32978;53.586;10.052;2023-03-11T08:03:06;15.23;;;10.88;;
47239;SDS011;32978;53.586;10.052;2023-03-11T08:08:02;20.48;;;11.75;;
47239;SDS011;32978;53.586;10.052;2023-03-11T08:12:59;18.15;;;11.38;;
47239;SDS011;32978;53.586;10.052;2023-03-11T08:17:55;12.50;;;9.98;;
47239;SDS011;32978;53.586;10.052;2023-03-11T08:22:52;13.10;;;9.10;;
47239;SDS011;32978;53.586;10.052;2023-03-11T08:27:55;12.82;;;9.55;;
47239;SDS011;32978;53.586;10.052;2023-03-11T08:32:51;10.82;;;7.97;;
47239;SDS011;32978;53.586;10.052;2023-03-11T08:37:48;9.98;;;8.15;;
47239;SDS011;32978;53.586;10.052;2023-03-11T08:42:44;13.40;;;8.32;;
47239;SDS011;32978;53.586;10.052;2023-03-11T08:47:41;10.05;;;8.20;;
47239;SDS011;32978;53.586;10.052;2023-03-11T08:52:37;9.95;;;7.60;;
47239;SDS011;32978;53.586;10.052;2023-03-11T08:57:33;8.90;;;6.40;;
47239;SDS011;32978;53.586;10.052;2023-03-11T09:02:30;10.15;;;7.43;;
47239;SDS011;32978;53.586;10.052;2023-03-11T09:07:26;10.25;;;6.80;;
47239;SDS011;32978;53.586;10.052;2023-03-11T09:12:23;9.50;;;7.78;;
47239;SDS011;32978;53.586;10.052;2023-03-11T09:17:19;8.95;;;7.47;;
47239;SDS011;32978;53.586;10.052;2023-03-11T09:22:16;9.35;;;7.35;;
47239;SDS011;32978;53.586;10.052;2023-03-11T09:27:12;7.85;;;6.30;;
47239;SDS011;32978;53.586;10.052;2023-03-11T09:32:13;7.95;;;5.90;;
47239;SDS011;32978;53.586;10.052;2023-03-11T09:37:11;9.27;;;6.05;;
47239;SDS011;32978;53.586;10.052;2023-03-11T09:42:18;8.85;;;6.45;;
47239;SDS011;32978;53.586;10.052;2023-03-11T09:57:55;8.90;;;5.22;;
47239;SDS011;32978;53.586;10.052;2023-03-11T10:02:53;6.35;;;4.43;;
47239;SDS011;32978;53.586;10.052;2023-03-11T10:07:52;8.43;;;5.15;;
47239;SDS011;32978;53.586;10.052;2023-03-11T10:18:18;8.85;;;5.00;;
47239;SDS011;32978;53.586;10.052;2023-03-11T10:39:27;6.50;;;4.88;;
47239;SDS011;32978;53.586;10.052;2023-03-11T10:44:26;8.45;;;4.80;;
47239;SDS011;32978;53.586;10.052;2023-03-11T10:49:27;8.05;;;4.90;;
47239;SDS011;32978;53.586;10.052;2023-03-11T10:59:23;8.70;;;5.20;;
47239;SDS011;32978;53.586;10.052;2023-03-11T11:04:22;7.93;;;4.50;;
47239;SDS011;32978;53.586;10.052;2023-03-11T11:09:23;7.20;;;4.65;;
47239;SDS011;32978;53.586;10.052;2023-03-11T11:14:22;7.78;;;5.20;;
47239;SDS011;32978;53.586;10.052;2023-03-11T11:19:18;11.07;;;5.90;;
47239;SDS011;32978;53.586;10.052;2023-03-11T11:24:19;9.57;;;5.93;;
47239;SDS011;32978;53.586;10.052;2023-03-11T11:29:20;7.45;;;5.05;;
47239;SDS011;32978;53.586;10.052;2023-03-11T11:34:25;8.00;;;5.95;;
47239;SDS011;32978;53.586;10.052;2023-03-11T11:39:22;5.90;;;5.00;;
47239;SDS011;32978;53.586;10.052;2023-03-11T11:44:21;8.38;;;5.15;;
47239;SDS011;32978;53.586;10.052;2023-03-11T11:49:28;9.75;;;4.95;;
47239;SDS011;32978;53.586;10.052;2023-03-11T11:54:34;8.90;;;5.30;;
47239;SDS011;32978;53.586;10.052;2023-03-11T11:59:34;5.78;;;5.07;;
47239;SDS011;32978;53.586;10.052;2023-03-11T12:15:23;7.13;;;4.60;;
47239;SDS011;32978;53.586;10.052;2023-03-11T12:20:26;9.57;;;5.35;;
47239;SDS011;32978;53.586;10.052;2023-03-11T12:25:33;6.38;;;5.63;;
47239;SDS011;32978;53.586;10.052;2023-03-11T12:30:36;9.02;;;4.80;;
47239;SDS011;32978;53.586;10.052;2023-03-11T12:35:39;9.43;;;4.60;;
47239;SDS011;32978;53.586;10.052;2023-03-11T12:40:45;6.95;;;5.10;;
47239;SDS011;32978;53.586;10.052;2023-03-11T12:50:45;11.63;;;4.20;;
47239;SDS011;32978;53.586;10.052;2023-03-11T12:55:53;6.53;;;4.38;;
47239;SDS011;32978;53.586;10.052;2023-03-11T13:01:02;5.40;;;4.50;;
47239;SDS011;32978;53.586;10.052;2023-03-11T13:06:57;11.25;;;4.80;;
47239;SDS011;32978;53.586;10.052;2023-03-11T13:11:47;6.78;;;4.43;;
47239;SDS011;32978;53.586;10.052;2023-03-11T13:16:44;4.63;;;3.60;;
47239;SDS011;32978;53.586;10.052;2023-03-11T13:21:41;5.70;;;4.35;;
47239;SDS011;32978;53.586;10.052;2023-03-11T13:26:39;5.28;;;4.07;;
47239;SDS011;32978;53.586;10.052;2023-03-11T13:37:05;6.03;;;4.35;;
47239;SDS011;32978;53.586;10.052;2023-03-11T13:47:35;6.93;;;5.07;;
47239;SDS011;32978;53.586;10.052;2023-03-11T13:52:37;5.67;;;5.17;;
47239;SDS011;32978;53.586;10.052;2023-03-11T13:57:39;8.32;;;5.10;;
47239;SDS011;32978;53.586;10.052;2023-03-11T14:07:52;4.90;;;4.25;;
47239;SDS011;32978;53.586;10.052;2023-03-11T14:13:11;5.13;;;4.47;;
47239;SDS011;32978;53.586;10.052;2023-03-11T14:19:22;8.38;;;4.38;;
47239;SDS011;32978;53.586;10.052;2023-03-11T14:23:58;4.95;;;4.32;;
47239;SDS011;32978;53.586;10.052;2023-03-11T14:28:59;6.88;;;4.10;;
47239;SDS011;32978;53.586;10.052;2023-03-11T14:39:05;7.97;;;4.15;;
47239;SDS011;32978;53.586;10.052;2023-03-11T14:44:16;7.57;;;5.35;;
47239;SDS011;32978;53.586;10.052;2023-03-11T14:49:17;6.25;;;4.05;;
47239;SDS011;32978;53.586;10.052;2023-03-11T14:54:21;9.02;;;4.60;;
47239;SDS011;32978;53.586;10.052;2023-03-11T14:59:21;8.48;;;4.07;;
47239;SDS011;32978;53.586;10.052;2023-03-11T15:04:31;7.80;;;4.28;;
47239;SDS011;32978;53.586;10.052;2023-03-11T15:09:33;5.03;;;4.53;;
47239;SDS011;32978;53.586;10.052;2023-03-11T15:14:36;5.65;;;4.45;;
47239;SDS011;32978;53.586;10.052;2023-03-11T15:19:44;6.75;;;4.43;;
47239;SDS011;32978;53.586;10.052;2023-03-11T15:24:47;5.93;;;4.30;;
47239;SDS011;32978;53.586;10.052;2023-03-11T15:29:51;8.38;;;4.50;;
47239;SDS011;32978;53.586;10.052;2023-03-11T15:34:57;4.95;;;4.20;;
47239;SDS011;32978;53.586;10.052;2023-03-11T15:40:10;8.05;;;4.65;;
47239;SDS011;32978;53.586;10.052;2023-03-11T15:45:12;7.70;;;4.60;;
47239;SDS011;32978;53.586;10.052;2023-03-11T15:55:20;6.47;;;5.38;;
47239;SDS011;32978;53.586;10.052;2023-03-11T16:00:19;9.82;;;5.90;;
47239;SDS011;32978;53.586;10.052;2023-03-11T16:05:18;5.53;;;5.00;;
47239;SDS011;32978;53.586;10.052;2023-03-11T16:10:18;9.43;;;5.10;;
47239;SDS011;32978;53.586;10.052;2023-03-11T16:15:21;8.05;;;5.10;;
47239;SDS011;32978;53.586;10.052;2023-03-11T16:20:24;10.07;;;4.53;;
47239;SDS011;32978;53.586;10.052;2023-03-11T16:25:23;7.57;;;4.32;;
47239;SDS011;32978;53.586;10.052;2023-03-11T16:30:23;8.15;;;4.93;;
47239;SDS011;32978;53.586;10.052;2023-03-11T16:35:21;9.20;;;4.90;;
47239;SDS011;32978;53.586;10.052;2023-03-11T16:40:19;6.95;;;4.47;;
47239;SDS011;32978;53.586;10.052;2023-03-11T16:45:17;9.20;;;5.47;;
47239;SDS011;32978;53.586;10.052;2023-03-11T16:50:14;7.50;;;5.60;;
47239;SDS011;32978;53.586;10.052;2023-03-11T16:55:11;7.07;;;6.10;;
47239;SDS011;32978;53.586;10.052;2023-03-11T17:00:08;7.78;;;5.68;;
47239;SDS011;32978;53.586;10.052;2023-03-11T17:05:06;14.35;;;6.15;;
47239;SDS011;32978;53.586;10.052;2023-03-11T17:10:03;11.07;;;6.43;;
47239;SDS011;32978;53.586;10.052;2023-03-11T17:15:00;11.35;;;6.25;;
47239;SDS011;32978;53.586;10.052;2023-03-11T17:19:57;10.93;;;6.53;;
47239;SDS011;32978;53.586;10.052;2023-03-11T17:24:53;10.77;;;6.60;;
47239;SDS011;32978;53.586;10.052;2023-03-11T17:29:50;7.90;;;7.10;;
47239;SDS011;32978;53.586;10.052;2023-03-11T17:34:46;10.18;;;7.50;;
47239;SDS011;32978;53.586;10.052;2023-03-11T17:39:43;8.95;;;7.10;;
47239;SDS011;32978;53.586;10.052;2023-03-11T17:44:39;9.15;;;7.53;;
47239;SDS011;32978;53.586;10.052;2023-03-11T17:49:47;9.05;;;6.78;;
47239;SDS011;32978;53.586;10.052;2023-03-11T17:54:44;7.65;;;6.53;;
47239;SDS011;32978;53.586;10.052;2023-03-11T17:59:40;10.15;;;7.15;;
47239;SDS011;32978;53.586;10.052;2023-03-11T18:04:37;7.88;;;7.07;;
47239;SDS011;32978;53.586;10.052;2023-03-11T18:09:34;8.15;;;6.47;;
47239;SDS011;32978;53.586;10.052;2023-03-11T18:14:30;8.32;;;6.05;;
47239;SDS011;32978;53.586;10.052;2023-03-11T18:19:27;9.00;;;6.63;;
47239;SDS011;32978;53.586;10.052;2023-03-11T18:24:23;8.18;;;6.80;;
47239;SDS011;32978;53.586;10.052;2023-03-11T18:29:20;9.50;;;7.20;;
47239;SDS011;32978;53.586;10.052;2023-03-11T18:34:17;43.17;;;8.65;;
47239;SDS011;32978;53.586;10.052;2023-03-11T18:39:13;9.40;;;6.50;;
47239;SDS011;32978;53.586;10.052;2023-03-11T18:44:10;7.50;;;6.85;;
47239;SDS011;32978;53.586;10.052;2023-03-11T18:49:09;8.45;;;6.70;;
47239;SDS011;32978;53.586;10.052;2023-03-11T18:54:07;8.60;;;6.72;;
47239;SDS011;32978;53.586;10.052;2023-03-11T18:59:05;7.47;;;6.43;;
47239;SDS011;32978;53.586;10.052;2023-03-11T19:04:02;6.97;;;6.03;;
47239;SDS011;32978;53.586;10.052;2023-03-11T19:08:59;8.60;;;6.43;;
47239;SDS011;32978;53.586;10.052;2023-03-11T19:13:55;7.38;;;6.57;;
47239;SDS011;32978;53.586;10.052;2023-03-11T19:18:52;8.07;;;6.35;;
47239;SDS011;32978;53.586;10.052;2023-03-11T19:23:50;8.55;;;6.50;;
47239;SDS011;32978;53.586;10.052;2023-03-11T19:28:50;7.38;;;6.32;;
47239;SDS011;32978;53.586;10.052;2023-03-11T19:33:47;8.65;;;6.00;;
47239;SDS011;32978;53.586;10.052;2023-03-11T19:38:46;8.40;;;6.25;;
47239;SDS011;32978;53.586;10.052;2023-03-11T19:43:43;8.18;;;6.20;;
47239;SDS011;32978;53.586;10.052;2023-03-11T19:48:40;8.98;;;6.93;;
47239;SDS011;32978;53.586;10.052;2023-03-11T19:53:37;7.25;;;6.60;;
47239;SDS011;32978;53.586;10.052;2023-03-11T19:58:35;8.48;;;6.60;;
47239;SDS011;32978;53.586;10.052;2023-03-11T20:03:32;7.22;;;6.13;;
47239;SDS011;32978;53.586;10.052;2023-03-11T20:08:29;9.98;;;6.10;;
47239;SDS011;32978;53.586;10.052;2023-03-11T20:13:32;10.07;;;5.80;;
47239;SDS011;32978;53.586;10.052;2023-03-11T20:18:32;9.88;;;5.50;;
47239;SDS011;32978;53.586;10.052;2023-03-11T20:23:31;8.55;;;5.10;;
47239;SDS011;32978;53.586;10.052;2023-03-11T20:28:28;9.70;;;5.20;;
47239;SDS011;32978;53.586;10.052;2023-03-11T20:33:24;6.22;;;5.00;;
47239;SDS011;32978;53.586;10.052;2023-03-11T20:38:22;8.05;;;5.38;;
47239;SDS011;32978;53.586;10.052;2023-03-11T20:43:19;5.80;;;4.65;;
47239;SDS011;32978;53.586;10.052;2023-03-11T20:48:18;5.90;;;4.57;;
47239;SDS011;32978;53.586;10.052;2023-03-11T20:53:15;5.38;;;4.80;;
47239;SDS011;32978;53.586;10.052;2023-03-11T20:58:12;9.30;;;5.65;;
47239;SDS011;32978;53.586;10.052;2023-03-11T21:03:08;6.63;;;5.30;;
47239;SDS011;32978;53.586;10.052;2023-03-11T21:08:05;10.38;;;5.00;;
47239;SDS011;32978;53.586;10.052;2023-03-11T21:13:02;13.75;;;5.82;;
47239;SDS011;32978;53.586;10.052;2023-03-11T21:17:59;6.18;;;5.40;;
47239;SDS011;32978;53.586;10.052;2023-03-11T21:22:56;7.15;;;5.57;;
47239;SDS011;32978;53.586;10.052;2023-03-11T21:27:53;7.85;;;4.80;;
47239;SDS011;32978;53.586;10.052;2023-03-11T21:32:49;8.55;;;4.57;;
47239;SDS011;32978;53.586;10.052;2023-03-11T21:37:46;7.18;;;4.75;;
47239;SDS011;32978;53.586;10.052;2023-03-11T21:42:42;11.73;;;5.60;;
47239;SDS011;32978;53.586;10.052;2023-03-11T21:47:39;6.07;;;4.95;;
47239;SDS011;32978;53.586;10.052;2023-03-11T21:52:36;9.20;;;5.70;;
47239;SDS011;32978;53.586;10.052;2023-03-11T21:57:32;9.02;;;5.60;;
47239;SDS011;32978;53.586;10.052;2023-03-11T22:02:29;6.68;;;5.18;;
47239;SDS011;32978;53.586;10.052;2023-03-11T22:07:25;9.75;;;5.53;;
47239;SDS011;32978;53.586;10.052;2023-03-11T22:12:22;7.45;;;5.40;;
47239;SDS011;32978;53.586;10.052;2023-03-11T22:17:18;8.00;;;5.28;;
47239;SDS011;32978;53.586;10.052;2023-03-11T22:22:15;5.93;;;4.68;;
47239;SDS011;32978;53.586;10.052;2023-03-11T22:27:14;11.35;;;5.65;;
47239;SDS011;32978;53.586;10.052;2023-03-11T22:32:11;8.45;;;6.05;;
47239;SDS011;32978;53.586;10.052;2023-03-11T22:37:07;6.88;;;5.50;;
47239;SDS011;32978;53.586;10.052;2023-03-11T22:42:04;10.60;;;6.05;;
47239;SDS011;32978;53.586;10.052;2023-03-11T22:47:01;10.30;;;5.38;;
47239;SDS011;32978;53.586;10.052;2023-03-11T22:51:57;11.07;;;5.68;;
47239;SDS011;32978;53.586;10.052;2023-03-11T22:56:54;9.32;;;5.88;;
47239;SDS011;32978;53.586;10.052;2023-03-11T23:01:51;8.95;;;5.80;;
47239;SDS011;32978;53.586;10.052;2023-03-11T23:06:47;7.32;;;6.60;;
47239;SDS011;32978;53.586;10.052;2023-03-11T23:11:44;10.52;;;6.63;;
47239;SDS011;32978;53.586;10.052;2023-03-11T23:16:40;10.25;;;7.07;;
47239;SDS011;32978;53.586;10.052;2023-03-11T23:21:37;13.10;;;6.90;;
47239;SDS011;32978;53.586;10.052;2023-03-11T23:26:34;9.13;;;8.02;;
47239;SDS011;32978;53.586;10.052;2023-03-11T23:31:31;9.90;;;8.20;;
47239;SDS011;32978;53.586;10.052;2023-03-11T23:36:28;10.73;;;7.93;;
47239;SDS011;32978;53.586;10.052;2023-03-11T23:41:25;13.68;;;9.05;;
47239;SDS011;32978;53.586;10.052;2023-03-11T23:46:22;11.82;;;8.85;;
47239;SDS011;32978;53.586;10.052;2023-03-11T23:51:19;12.32;;;8.88;;
47239;SDS011;32978;53.586;10.052;2023-03-11T23:56:16;13.25;;;9.60;;
